createdAt,value
2023-04-05T00:00:47.956Z,6.53
2023-04-05T00:03:18.173Z,7.70
2023-04-05T00:05:46.598Z,6.15
2023-04-05T00:08:23.978Z,6.35
2023-04-05T00:10:51.738Z,6.15
2023-04-05T00:13:19.391Z,6.93
2023-04-05T00:15:49.480Z,6.40
2023-04-05T00:18:24.018Z,6.28
2023-04-05T00:20:52.014Z,5.60
2023-04-05T00:23:21.366Z,5.68
2023-04-05T00:25:49.125Z,6.03
2023-04-05T00:28:16.684Z,6.15
2023-04-05T00:30:44.430Z,6.82
2023-04-05T00:33:15.009Z,6.32
2023-04-05T00:35:42.849Z,6.30
2023-04-05T00:38:10.450Z,6.60
2023-04-05T00:40:38.013Z,6.00
2023-04-05T00:43:05.617Z,6.10
2023-04-05T00:45:33.666Z,6.18
2023-04-05T00:48:01.758Z,5.75
2023-04-05T00:50:31.054Z,6.80
2023-04-05T00:52:59.027Z,6.20
2023-04-05T00:55:27.653Z,5.93
2023-04-05T00:57:59.220Z,6.13
2023-04-05T01:00:27.422Z,6.47
2023-04-05T01:03:04.238Z,6.60
2023-04-05T01:05:44.561Z,6.55
2023-04-05T01:08:57.049Z,6.28
2023-04-05T01:11:26.460Z,6.20
2023-04-05T01:14:01.866Z,5.88
2023-04-05T01:16:29.670Z,5.93
2023-04-05T01:18:57.759Z,6.68
2023-04-05T01:21:34.389Z,7.25
2023-04-05T01:24:25.279Z,7.10
2023-04-05T01:26:56.326Z,6.20
2023-04-05T01:30:04.001Z,6.45
2023-04-05T01:33:03.956Z,6.22
2023-04-05T01:35:49.153Z,7.00
2023-04-05T01:38:22.409Z,6.88
2023-04-05T01:40:50.553Z,7.18
2023-04-05T01:43:18.747Z,6.55
2023-04-05T01:45:47.436Z,6.65
2023-04-05T01:48:16.006Z,7.90
2023-04-05T01:50:43.990Z,6.43
2023-04-05T01:53:11.899Z,7.32
2023-04-05T01:55:39.411Z,7.00
2023-04-05T01:58:06.881Z,6.85
2023-04-05T02:00:34.427Z,7.22
2023-04-05T02:03:02.097Z,6.82
2023-04-05T02:05:30.895Z,7.47
2023-04-05T02:07:58.452Z,7.65
2023-04-05T02:10:25.990Z,8.00
2023-04-05T02:12:55.471Z,7.65
2023-04-05T02:15:23.197Z,7.70
2023-04-05T02:17:54.272Z,7.20
2023-04-05T02:20:21.940Z,6.57
2023-04-05T02:22:49.470Z,7.63
2023-04-05T02:25:17.011Z,7.80
2023-04-05T02:27:44.476Z,7.32
2023-04-05T02:30:14.165Z,7.43
2023-04-05T02:32:43.258Z,6.85
2023-04-05T02:35:10.918Z,6.90
2023-04-05T02:37:38.970Z,7.53
2023-04-05T02:40:13.656Z,7.00
2023-04-05T02:42:42.122Z,6.85
2023-04-05T02:45:09.918Z,7.13
2023-04-05T02:47:37.549Z,7.50
2023-04-05T02:50:05.759Z,7.27
2023-04-05T02:52:38.563Z,6.82
2023-04-05T02:55:07.262Z,6.40
2023-04-05T02:57:35.710Z,7.47
2023-04-05T03:00:16.685Z,7.70
2023-04-05T03:02:44.188Z,6.68
2023-04-05T03:05:11.767Z,7.23
2023-04-05T03:07:42.669Z,6.35
2023-04-05T03:10:15.082Z,7.05
2023-04-05T03:12:43.023Z,7.13
2023-04-05T03:15:12.614Z,7.20
2023-04-05T03:17:44.493Z,6.68
2023-04-05T03:20:13.971Z,6.82
2023-04-05T03:22:42.619Z,6.88
2023-04-05T03:25:12.228Z,7.13
2023-04-05T03:27:46.239Z,7.72
2023-04-05T03:30:16.986Z,6.78
2023-04-05T03:32:53.942Z,6.60
2023-04-05T03:35:41.860Z,7.07
2023-04-05T03:38:11.622Z,7.63
2023-04-05T03:40:46.970Z,7.47
2023-04-05T03:43:14.620Z,6.82
2023-04-05T03:45:42.412Z,6.75
2023-04-05T03:48:10.055Z,7.35
2023-04-05T03:50:37.637Z,7.75
2023-04-05T03:53:05.334Z,7.22
2023-04-05T03:55:33.333Z,6.15
2023-04-05T03:58:05.078Z,7.10
2023-04-05T04:00:36.246Z,6.60
2023-04-05T04:03:26.165Z,6.60
2023-04-05T04:05:55.791Z,6.90
2023-04-05T04:08:23.699Z,7.03
2023-04-05T04:10:51.227Z,6.90
2023-04-05T04:13:27.669Z,6.63
2023-04-05T04:16:11.171Z,6.53
2023-04-05T04:18:47.818Z,7.32
2023-04-05T04:21:25.166Z,6.55
2023-04-05T04:24:19.577Z,6.65
2023-04-05T04:26:54.670Z,6.97
2023-04-05T04:29:46.697Z,6.88
2023-04-05T04:32:51.931Z,7.15
2023-04-05T04:35:47.045Z,6.75
2023-04-05T04:38:44.683Z,6.57
2023-04-05T04:41:50.855Z,7.00
2023-04-05T04:44:37.053Z,7.03
2023-04-05T04:47:34.052Z,6.93
2023-04-05T04:50:19.997Z,7.32
2023-04-05T04:52:48.777Z,7.68
2023-04-05T04:55:16.519Z,7.28
2023-04-05T04:57:47.248Z,7.43
2023-04-05T05:00:16.179Z,7.53
2023-04-05T05:02:46.858Z,7.05
2023-04-05T05:05:17.076Z,7.03
2023-04-05T05:07:44.966Z,7.75
2023-04-05T05:10:16.272Z,8.35
2023-04-05T05:12:44.799Z,7.85
2023-04-05T05:15:15.557Z,7.78
2023-04-05T05:17:43.516Z,8.07
2023-04-05T05:20:12.057Z,7.22
2023-04-05T05:22:46.613Z,7.30
2023-04-05T05:25:14.302Z,7.32
2023-04-05T05:27:42.089Z,8.52
2023-04-05T05:30:13.049Z,7.22
2023-04-05T05:32:42.594Z,8.55
2023-04-05T05:35:10.269Z,7.85
2023-04-05T05:37:37.971Z,7.50
2023-04-05T05:40:06.107Z,7.55
2023-04-05T05:42:34.700Z,7.35
2023-04-05T05:45:05.583Z,8.07
2023-04-05T05:47:33.198Z,7.18
2023-04-05T05:50:00.785Z,7.70
2023-04-05T05:52:28.288Z,8.35
2023-04-05T05:54:55.884Z,7.35
2023-04-05T05:57:23.446Z,7.00
2023-04-05T05:59:51.116Z,7.28
2023-04-05T06:02:18.675Z,6.65
2023-04-05T06:04:46.305Z,6.95
2023-04-05T06:07:13.878Z,7.20
2023-04-05T06:09:41.486Z,7.82
2023-04-05T06:12:09.086Z,7.05
2023-04-05T06:14:36.756Z,7.57
2023-04-05T06:17:04.181Z,6.53
2023-04-05T06:19:32.222Z,7.30
2023-04-05T06:22:01.302Z,7.32
2023-04-05T06:24:32.060Z,7.50
2023-04-05T06:26:59.825Z,6.43
2023-04-05T06:29:27.556Z,6.82
2023-04-05T06:31:55.691Z,6.35
2023-04-05T06:34:23.387Z,6.78
2023-04-05T06:36:51.106Z,6.25
2023-04-05T06:39:19.659Z,7.82
2023-04-05T06:41:47.367Z,6.68
2023-04-05T06:44:14.967Z,6.93
2023-04-05T06:46:42.443Z,6.40
2023-04-05T06:49:10.190Z,5.95
2023-04-05T06:51:37.673Z,7.10
2023-04-05T06:54:05.357Z,6.25
2023-04-05T06:56:33.072Z,7.28
2023-04-05T06:59:02.391Z,6.90
2023-04-05T07:01:30.113Z,6.40
2023-04-05T07:03:57.688Z,5.72
2023-04-05T07:06:25.232Z,6.25
2023-04-05T07:08:52.699Z,6.40
2023-04-05T07:11:20.196Z,5.72
2023-04-05T07:13:47.860Z,7.10
2023-04-05T07:16:15.839Z,6.43
2023-04-05T07:18:43.421Z,6.65
2023-04-05T07:21:11.010Z,6.30
2023-04-05T07:23:38.684Z,5.72
2023-04-05T07:26:08.100Z,6.10
2023-04-05T07:28:36.201Z,6.45
2023-04-05T07:35:18.140Z,5.65
2023-04-05T07:37:45.703Z,6.10
2023-04-05T07:40:13.562Z,6.15
2023-04-05T07:42:41.400Z,6.38
2023-04-05T07:45:09.298Z,5.80
2023-04-05T07:47:36.887Z,6.32
2023-04-05T07:50:04.788Z,6.00
2023-04-05T07:52:32.263Z,5.78
2023-04-05T07:55:00.225Z,6.03
2023-04-05T07:57:28.054Z,6.05
2023-04-05T07:59:56.922Z,6.30
2023-04-05T08:02:24.653Z,5.93
2023-04-05T08:04:52.127Z,6.80
2023-04-05T08:07:20.117Z,6.50
2023-04-05T08:09:47.581Z,7.13
2023-04-05T08:12:15.128Z,6.32
2023-04-05T08:14:42.800Z,6.63
2023-04-05T08:17:10.474Z,6.40
2023-04-05T08:19:37.968Z,6.25
2023-04-05T08:22:05.644Z,8.18
2023-04-05T08:24:33.486Z,6.95
2023-04-05T08:27:01.708Z,6.35
2023-04-05T08:29:29.277Z,6.68
2023-04-05T08:31:58.790Z,6.28
2023-04-05T08:34:26.627Z,6.63
2023-04-05T08:36:58.435Z,6.30
2023-04-05T08:39:27.017Z,6.57
2023-04-05T08:42:12.518Z,6.00
2023-04-05T08:44:41.541Z,6.47
2023-04-05T08:47:15.173Z,6.43
2023-04-05T08:49:44.375Z,7.78
2023-04-05T08:52:12.408Z,6.72
2023-04-05T08:54:42.861Z,6.22
2023-04-05T08:57:11.332Z,6.55
2023-04-05T08:59:42.407Z,6.30
2023-04-05T09:02:16.633Z,6.85
2023-04-05T09:04:45.418Z,6.50
2023-04-05T09:07:16.515Z,6.30
2023-04-05T09:09:52.726Z,7.22
2023-04-05T09:12:24.558Z,6.13
2023-04-05T09:14:52.730Z,6.43
2023-04-05T09:17:20.417Z,7.03
2023-04-05T09:19:50.522Z,6.88
2023-04-05T09:22:20.700Z,6.28
2023-04-05T09:24:48.283Z,6.60
2023-04-05T09:27:21.268Z,6.20
2023-04-05T09:29:55.025Z,6.05
2023-04-05T09:32:28.402Z,6.00
2023-04-05T09:35:01.312Z,6.15
2023-04-05T09:37:32.420Z,5.25
2023-04-05T09:40:07.089Z,5.57
2023-04-05T09:42:47.382Z,5.80
2023-04-05T09:45:16.462Z,6.05
2023-04-05T09:47:58.287Z,5.65
2023-04-05T09:50:26.138Z,5.70
2023-04-05T09:53:20.903Z,5.35
2023-04-05T09:56:11.177Z,5.28
2023-04-05T09:58:44.895Z,6.38
2023-04-05T10:01:33.320Z,5.18
2023-04-05T10:04:07.326Z,5.30
2023-04-05T10:06:36.385Z,5.85
2023-04-05T10:09:05.322Z,4.78
2023-04-05T10:11:34.662Z,5.28
2023-04-05T10:14:04.533Z,5.20
2023-04-05T10:16:58.337Z,5.43
2023-04-05T10:19:41.491Z,4.72
2023-04-05T10:22:17.689Z,5.45
2023-04-05T10:25:00.054Z,4.93
2023-04-05T10:27:33.559Z,5.13
2023-04-05T10:30:09.356Z,5.30
2023-04-05T10:35:19.906Z,4.82
2023-04-05T10:38:13.892Z,4.60
2023-04-05T10:40:46.585Z,4.47
2023-04-05T10:43:23.750Z,4.50
2023-04-05T10:45:54.124Z,4.68
2023-04-05T10:49:09.226Z,5.07
2023-04-05T10:51:37.598Z,4.78
2023-04-05T10:54:10.551Z,4.90
2023-04-05T10:56:39.978Z,5.45
2023-04-05T10:59:08.910Z,5.40
2023-04-05T11:01:38.872Z,5.43
2023-04-05T11:04:12.951Z,6.32
2023-04-05T11:06:41.485Z,5.53
2023-04-05T11:09:08.937Z,4.57
2023-04-05T11:11:48.467Z,4.93
2023-04-05T11:14:41.941Z,5.68
2023-04-05T11:17:29.378Z,6.00
2023-04-05T11:20:10.713Z,5.30
2023-04-05T11:22:39.114Z,5.13
2023-04-05T11:25:06.990Z,5.25
2023-04-05T11:27:37.681Z,4.70
2023-04-05T11:30:06.548Z,5.78
2023-04-05T11:32:43.092Z,5.25
2023-04-05T11:35:25.957Z,6.43
2023-04-05T11:38:02.749Z,5.78
2023-04-05T11:40:35.475Z,5.03
2023-04-05T11:43:07.988Z,5.03
2023-04-05T11:45:38.322Z,5.40
2023-04-05T11:48:13.910Z,4.65
2023-04-05T11:50:42.551Z,4.50
2023-04-05T11:53:15.709Z,5.50
2023-04-05T11:55:48.623Z,5.53
2023-04-05T11:58:21.500Z,5.20
2023-04-05T12:01:08.106Z,4.68
2023-04-05T12:03:37.489Z,5.82
2023-04-05T12:06:07.895Z,5.55
2023-04-05T12:08:42.609Z,5.30
2023-04-05T12:11:12.321Z,5.07
2023-04-05T12:13:40.051Z,4.88
2023-04-05T12:16:10.340Z,4.95
2023-04-05T12:18:38.832Z,4.72
2023-04-05T12:21:09.097Z,4.68
2023-04-05T12:23:38.267Z,4.82
2023-04-05T12:26:08.476Z,4.82
2023-04-05T12:28:56.494Z,4.38
2023-04-05T12:31:43.788Z,4.35
2023-04-05T12:34:13.056Z,4.60
2023-04-05T12:36:49.686Z,4.13
2023-04-05T12:39:19.828Z,4.75
2023-04-05T12:41:58.531Z,4.20
2023-04-05T12:44:31.215Z,4.63
2023-04-05T12:47:10.580Z,4.72
2023-04-05T12:50:26.108Z,3.97
2023-04-05T13:03:04.615Z,4.05
2023-04-05T13:05:56.912Z,3.80
2023-04-05T13:08:52.495Z,4.35
2023-04-05T13:11:35.137Z,3.70
2023-04-05T13:14:02.642Z,5.00
2023-04-05T13:20:13.487Z,4.05
2023-04-05T13:22:41.595Z,4.00
2023-04-05T13:25:09.735Z,4.20
2023-04-05T13:27:38.612Z,4.80
2023-04-05T13:30:06.826Z,4.85
2023-04-05T13:32:35.180Z,5.15
2023-04-05T13:35:02.794Z,5.30
2023-04-05T13:37:30.679Z,5.95
2023-04-05T13:39:58.162Z,4.30
2023-04-05T13:42:26.163Z,5.00
2023-04-05T13:44:53.639Z,5.53
2023-04-05T13:47:23.397Z,4.93
2023-04-05T13:49:56.023Z,4.55
2023-04-05T13:52:24.474Z,5.28
2023-04-05T13:55:03.243Z,5.80
2023-04-05T13:57:32.103Z,5.38
2023-04-05T13:59:59.766Z,4.50
2023-04-05T14:02:27.978Z,4.90
2023-04-05T14:04:55.877Z,4.70
2023-04-05T14:07:24.082Z,4.20
2023-04-05T14:09:54.551Z,4.90
2023-04-05T14:12:23.080Z,4.50
2023-04-05T14:14:51.178Z,4.68
2023-04-05T14:17:18.795Z,4.72
2023-04-05T14:19:46.410Z,4.40
2023-04-05T14:22:14.296Z,4.32
2023-04-05T14:24:41.974Z,5.07
2023-04-05T14:27:09.623Z,3.90
2023-04-05T14:29:37.322Z,3.90
2023-04-05T14:32:05.634Z,4.30
2023-04-05T14:34:33.883Z,3.25
2023-04-05T14:37:03.186Z,4.03
2023-04-05T14:39:30.820Z,3.80
2023-04-05T14:41:58.667Z,3.60
2023-04-05T14:44:27.672Z,4.00
2023-04-05T14:46:55.571Z,3.50
2023-04-05T14:49:23.209Z,3.75
2023-04-05T14:51:51.127Z,4.07
2023-04-05T14:54:18.693Z,3.80
2023-04-05T14:56:46.563Z,3.85
2023-04-05T14:59:14.210Z,3.97
2023-04-05T15:01:44.506Z,3.80
2023-04-05T15:04:12.360Z,4.25
2023-04-05T15:06:39.830Z,4.43
2023-04-05T15:09:07.306Z,3.78
2023-04-05T15:11:39.272Z,3.33
2023-04-05T15:14:15.436Z,3.38
2023-04-05T15:16:48.920Z,3.58
2023-04-05T15:19:16.674Z,3.45
2023-04-05T15:21:44.808Z,4.32
2023-04-05T15:24:12.534Z,4.07
2023-04-05T15:26:40.984Z,3.75
2023-04-05T15:29:11.173Z,3.80
2023-04-05T15:31:39.544Z,3.70
2023-04-05T15:34:08.338Z,3.67
2023-04-05T15:36:36.319Z,3.40
2023-04-05T15:39:05.357Z,3.03
2023-04-05T15:41:33.726Z,3.63
2023-04-05T15:44:01.511Z,3.83
2023-04-05T15:46:29.843Z,3.35
2023-04-05T15:48:57.433Z,2.70
2023-04-05T15:51:25.349Z,3.47
2023-04-05T15:53:53.196Z,5.10
2023-04-05T15:56:20.894Z,4.05
2023-04-05T15:58:48.597Z,3.80
2023-04-05T16:01:16.536Z,4.20
2023-04-05T16:03:44.375Z,4.07
2023-04-05T16:06:12.030Z,5.90
2023-04-05T16:08:39.623Z,4.43
2023-04-05T16:11:10.388Z,3.63
2023-04-05T16:13:38.003Z,4.45
2023-04-05T16:16:07.748Z,3.53
2023-04-05T16:18:35.375Z,3.60
2023-04-05T16:21:03.084Z,4.20
2023-04-05T16:23:31.518Z,3.65
2023-04-05T16:25:59.092Z,3.88
2023-04-05T16:28:27.089Z,4.68
2023-04-05T16:30:56.074Z,4.22
2023-04-05T16:33:23.766Z,3.97
2023-04-05T16:35:51.502Z,3.80
2023-04-05T16:38:19.078Z,4.47
2023-04-05T16:40:46.778Z,3.63
2023-04-05T16:43:14.358Z,4.47
2023-04-05T16:45:44.012Z,3.85
2023-04-05T16:48:12.887Z,3.63
2023-04-05T16:50:41.759Z,4.50
2023-04-05T16:53:10.378Z,3.92
2023-04-05T16:55:37.931Z,3.97
2023-04-05T16:58:05.483Z,4.18
2023-04-05T17:00:33.776Z,4.22
2023-04-05T17:03:01.946Z,4.07
2023-04-05T17:05:29.606Z,3.85
2023-04-05T17:07:57.536Z,4.25
2023-04-05T17:10:25.154Z,4.18
2023-04-05T17:12:52.815Z,5.25
2023-04-05T17:15:20.384Z,3.58
2023-04-05T17:17:47.914Z,4.47
2023-04-05T17:20:15.569Z,4.72
2023-04-05T17:22:43.164Z,3.97
2023-04-05T17:25:13.149Z,3.95
2023-04-05T17:27:40.824Z,4.47
2023-04-05T17:30:09.121Z,4.18
2023-04-05T17:32:36.764Z,4.03
2023-04-05T17:35:07.115Z,4.57
2023-04-05T17:37:34.728Z,4.75
2023-04-05T17:40:02.792Z,4.40
2023-04-05T17:42:30.595Z,4.38
2023-04-05T17:44:58.279Z,3.60
2023-04-05T17:47:26.021Z,3.33
2023-04-05T17:49:53.596Z,3.33
2023-04-05T17:52:22.657Z,3.55
2023-04-05T17:54:52.433Z,3.80
2023-04-05T17:57:20.149Z,3.22
2023-04-05T17:59:47.682Z,3.20
2023-04-05T18:02:15.414Z,3.85
2023-04-05T18:04:43.068Z,3.47
2023-04-05T18:07:10.746Z,3.40
2023-04-05T18:09:42.028Z,3.35
2023-04-05T18:12:10.287Z,3.83
2023-04-05T18:14:37.975Z,3.42
2023-04-05T18:17:07.575Z,4.55
2023-04-05T18:19:35.135Z,3.90
2023-04-05T18:22:02.874Z,3.63
2023-04-05T18:24:31.203Z,3.75
2023-04-05T18:26:58.822Z,3.63
2023-04-05T18:29:29.564Z,3.53
2023-04-05T18:31:59.367Z,4.10
2023-04-05T18:34:27.122Z,3.60
2023-04-05T18:36:54.666Z,2.60
2023-04-05T18:39:26.222Z,3.05
2023-04-05T18:41:55.136Z,3.03
2023-04-05T18:44:22.684Z,2.70
2023-04-05T18:46:50.574Z,3.13
2023-04-05T18:49:19.180Z,2.80
2023-04-05T18:51:49.050Z,2.67
2023-04-05T18:54:18.613Z,2.60
2023-04-05T18:56:46.200Z,3.22
2023-04-05T18:59:13.876Z,3.28
2023-04-05T19:01:41.442Z,2.67
2023-04-05T19:04:09.118Z,3.15
2023-04-05T19:06:36.628Z,3.35
2023-04-05T19:09:04.893Z,2.47
2023-04-05T19:11:32.600Z,3.13
2023-04-05T19:14:01.785Z,3.00
2023-04-05T19:16:30.422Z,3.20
2023-04-05T19:18:58.125Z,3.28
2023-04-05T19:21:26.179Z,3.42
2023-04-05T19:23:53.941Z,3.58
2023-04-05T19:26:22.648Z,3.60
2023-04-05T19:28:50.604Z,3.67
2023-04-05T19:31:18.262Z,3.47
2023-04-05T19:33:46.463Z,3.00
2023-04-05T19:36:14.135Z,3.95
2023-04-05T19:38:41.985Z,4.07
2023-04-05T19:41:09.644Z,3.60
2023-04-05T19:43:39.480Z,3.13
2023-04-05T19:46:10.501Z,3.42
2023-04-05T19:48:44.266Z,3.10
2023-04-05T19:51:14.996Z,3.70
2023-04-05T19:53:45.749Z,3.33
2023-04-05T19:56:32.476Z,3.92
2023-04-05T19:59:17.692Z,4.72
2023-04-05T20:01:47.577Z,3.75
2023-04-05T20:04:18.797Z,5.03
2023-04-05T20:06:53.156Z,4.55
2023-04-05T20:09:30.524Z,3.28
2023-04-05T20:12:06.302Z,5.10
2023-04-05T20:14:49.455Z,3.58
2023-04-05T20:17:19.008Z,5.75
2023-04-05T20:20:00.439Z,4.77
2023-04-05T20:22:29.261Z,4.13
2023-04-05T20:24:56.810Z,4.53
2023-04-05T20:27:24.562Z,4.55
2023-04-05T20:29:52.543Z,4.70
2023-04-05T20:32:21.541Z,3.08
2023-04-05T20:34:49.172Z,3.97
2023-04-05T20:37:16.792Z,6.10
2023-04-05T20:39:44.278Z,4.95
2023-04-05T20:42:11.914Z,4.32
2023-04-05T20:44:39.454Z,3.65
2023-04-05T20:47:10.187Z,4.05
2023-04-05T20:49:37.864Z,3.90
2023-04-05T20:52:07.842Z,3.50
2023-04-05T20:54:35.754Z,3.75
2023-04-05T20:57:03.348Z,3.60
2023-04-05T20:59:31.531Z,4.13
2023-04-05T21:01:59.099Z,4.03
2023-04-05T21:04:29.402Z,4.60
2023-04-05T21:06:58.213Z,3.73
2023-04-05T21:09:25.897Z,3.83
2023-04-05T21:11:53.608Z,4.30
2023-04-05T21:14:21.300Z,3.90
2023-04-05T21:16:51.799Z,3.67
2023-04-05T21:19:19.422Z,4.40
2023-04-05T21:21:46.929Z,3.70
2023-04-05T21:24:14.512Z,4.73
2023-04-05T21:26:42.222Z,4.27
2023-04-05T21:29:09.818Z,3.80
2023-04-05T21:31:37.501Z,5.20
2023-04-05T21:34:05.103Z,4.57
2023-04-05T21:36:32.548Z,3.90
2023-04-05T21:39:00.047Z,4.13
2023-04-05T21:41:27.552Z,4.07
2023-04-05T21:43:55.058Z,3.97
2023-04-05T21:46:22.780Z,4.00
2023-04-05T21:48:50.730Z,3.87
2023-04-05T21:51:18.206Z,4.13
2023-04-05T21:53:45.721Z,4.40
2023-04-05T21:56:13.255Z,4.40
2023-04-05T21:58:42.301Z,4.93
2023-04-05T22:01:09.944Z,4.07
2023-04-05T22:03:37.652Z,4.67
2023-04-05T22:06:05.495Z,3.97
2023-04-05T22:08:35.037Z,4.13
2023-04-05T22:11:04.229Z,3.83
2023-04-05T22:13:32.020Z,3.70
2023-04-05T22:15:59.629Z,3.63
2023-04-05T22:18:29.117Z,3.73
2023-04-05T22:20:56.823Z,3.67
2023-04-05T22:23:24.331Z,3.43
2023-04-05T22:25:53.371Z,3.50
2023-04-05T22:28:21.787Z,3.33
2023-04-05T22:30:50.029Z,4.00
2023-04-05T22:33:17.661Z,3.20
2023-04-05T22:35:45.215Z,3.57
2023-04-05T22:38:12.739Z,3.63
2023-04-05T22:40:40.726Z,3.07
2023-04-05T22:43:08.322Z,3.73
2023-04-05T22:45:35.863Z,3.43
2023-04-05T22:48:03.873Z,3.40
2023-04-05T22:50:32.659Z,3.57
2023-04-05T22:53:00.326Z,3.20
2023-04-05T22:55:27.949Z,3.50
2023-04-05T22:57:55.568Z,3.43
2023-04-05T23:00:23.166Z,3.00
2023-04-05T23:02:51.138Z,3.57
2023-04-05T23:05:18.820Z,2.90
2023-04-05T23:07:46.303Z,3.67
2023-04-05T23:10:13.973Z,3.00
2023-04-05T23:12:42.202Z,3.30
2023-04-05T23:15:10.173Z,3.23
2023-04-05T23:17:38.047Z,3.17
2023-04-05T23:20:07.341Z,3.50
2023-04-05T23:22:36.253Z,3.40
2023-04-05T23:25:04.687Z,3.27
2023-04-05T23:27:32.343Z,3.17
2023-04-05T23:29:59.943Z,3.17
2023-04-05T23:32:27.522Z,3.30
2023-04-05T23:34:55.155Z,2.67
2023-04-05T23:37:22.709Z,3.40
2023-04-05T23:39:50.308Z,3.10
2023-04-05T23:42:17.793Z,2.90
2023-04-05T23:44:45.459Z,2.93
2023-04-05T23:47:13.166Z,3.60
2023-04-05T23:49:40.658Z,4.07
2023-04-05T23:52:08.288Z,2.87
2023-04-05T23:54:35.753Z,3.10
2023-04-05T23:57:03.361Z,2.80
2023-04-05T23:59:31.132Z,3.30
